Time;durP1;ratioP1;P1;durP2;ratioP2;P2;SDS_P1;SDS_P2;PMS_P1;PMS_P2;Temp;Humidity;BMP_temperature;BMP_pressure;BME280_temperature;BME280_humidity;BME280_pressure;Samples;Min_cycle;Max_cycle;Signal;HPM_P1;HPM_P2
2022/12/29 00:02:08;;;;;;;12.93;5.00;;;;;;;;;;4985493;28;20038;-49
2022/12/29 00:04:33;;;;;;;7.95;5.10;;;;;;;;;;4986366;28;20042;-45
2022/12/29 00:06:59;;;;;;;9.90;5.90;;;;;;;;;;4991101;28;20145;-48
2022/12/29 00:09:25;;;;;;;8.75;5.13;;;;;;;;;;4993622;28;20109;-48
2022/12/29 00:11:51;;;;;;;11.50;5.15;;;;;;;;;;4991174;28;20533;-45
2022/12/29 00:17:00;;;;;;;8.90;5.15;;;;;;;;;;4990790;28;20138;-45
2022/12/29 00:36:11;;;;;;;12.85;4.88;;;;;;;;;;4991159;28;20200;-45
2022/12/29 00:44:11;;;;;;;11.80;4.85;;;;;;;;;;4986325;28;20502;-45
2022/12/29 00:46:38;;;;;;;12.00;5.78;;;;;;;;;;4991215;28;20050;-46
2022/12/29 00:51:49;;;;;;;9.60;5.20;;;;;;;;;;4991162;28;20065;-45
2022/12/29 00:54:16;;;;;;;11.10;4.90;;;;;;;;;;4992648;28;20031;-45
2022/12/29 00:56:41;;;;;;;7.40;4.07;;;;;;;;;;4944158;28;1282417;-46
2022/12/29 00:59:09;;;;;;;9.45;4.47;;;;;;;;;;4990999;28;20072;-47
2022/12/29 01:01:35;;;;;;;11.27;4.88;;;;;;;;;;4991280;28;20062;-42
2022/12/29 01:04:00;;;;;;;7.45;4.60;;;;;;;;;;4992239;28;20446;-45
2022/12/29 01:06:26;;;;;;;9.77;4.72;;;;;;;;;;4991679;28;20026;-48
2022/12/29 01:11:36;;;;;;;11.05;5.53;;;;;;;;;;4991543;28;20081;-44
2022/12/29 01:14:01;;;;;;;8.70;4.97;;;;;;;;;;4991029;28;20053;-45
2022/12/29 01:16:26;;;;;;;8.38;4.88;;;;;;;;;;4990537;28;20040;-44
2022/12/29 01:18:52;;;;;;;11.88;5.57;;;;;;;;;;4993051;28;20101;-45
2022/12/29 01:21:17;;;;;;;12.98;5.28;;;;;;;;;;4989394;28;20029;-45
2022/12/29 01:23:42;;;;;;;9.40;4.35;;;;;;;;;;4991317;28;20034;-44
2022/12/29 01:26:12;;;;;;;11.25;5.45;;;;;;;;;;4988870;28;20023;-47
2022/12/29 01:28:41;;;;;;;9.35;5.22;;;;;;;;;;4991922;28;20057;-45
2022/12/29 01:31:11;;;;;;;10.00;4.47;;;;;;;;;;4993359;28;20037;-45
2022/12/29 01:33:37;;;;;;;10.68;4.50;;;;;;;;;;4990722;28;20088;-45
2022/12/29 01:36:04;;;;;;;10.52;5.28;;;;;;;;;;4989080;28;20034;-45
2022/12/29 01:38:30;;;;;;;6.28;4.63;;;;;;;;;;4987579;28;20035;-45
2022/12/29 01:40:55;;;;;;;8.07;4.88;;;;;;;;;;4990405;28;20030;-48
2022/12/29 01:43:21;;;;;;;9.02;4.88;;;;;;;;;;4993110;28;20120;-45
2022/12/29 01:45:52;;;;;;;7.20;4.13;;;;;;;;;;4992810;28;20421;-45
2022/12/29 01:48:19;;;;;;;10.32;4.80;;;;;;;;;;4988694;28;20606;-45
2022/12/29 01:50:51;;;;;;;5.93;4.25;;;;;;;;;;4992505;28;20121;-47
2022/12/29 01:53:22;;;;;;;12.35;5.20;;;;;;;;;;4992273;28;20249;-49
2022/12/29 01:56:09;;;;;;;9.32;4.50;;;;;;;;;;4990119;28;20145;-47
2022/12/29 01:58:41;;;;;;;8.20;4.65;;;;;;;;;;4986142;28;20804;-46
2022/12/29 02:01:06;;;;;;;11.23;4.82;;;;;;;;;;4990260;28;20030;-48
2022/12/29 02:03:34;;;;;;;12.00;5.13;;;;;;;;;;4989119;28;20519;-47
2022/12/29 02:06:08;;;;;;;13.15;4.97;;;;;;;;;;4987996;28;20034;-45
2022/12/29 02:08:34;;;;;;;8.70;4.53;;;;;;;;;;4989811;28;20057;-45
2022/12/29 02:11:00;;;;;;;10.52;4.80;;;;;;;;;;4990067;28;20026;-45
2022/12/29 02:13:27;;;;;;;6.78;4.85;;;;;;;;;;4986633;28;20117;-45
2022/12/29 02:16:17;;;;;;;7.10;4.65;;;;;;;;;;4990728;28;20437;-45
2022/12/29 02:18:52;;;;;;;10.43;5.25;;;;;;;;;;4989377;28;20053;-44
2022/12/29 02:21:35;;;;;;;8.38;4.35;;;;;;;;;;4990480;28;20045;-45
2022/12/29 02:24:24;;;;;;;10.15;4.68;;;;;;;;;;4990195;28;20050;-47
2022/12/29 02:27:27;;;;;;;7.10;4.63;;;;;;;;;;4985463;28;20047;-48
2022/12/29 02:30:26;;;;;;;7.82;4.45;;;;;;;;;;4990488;28;20034;-45
2022/12/29 02:33:01;;;;;;;7.82;4.65;;;;;;;;;;4990402;28;20034;-45
2022/12/29 02:35:55;;;;;;;6.90;4.18;;;;;;;;;;4984730;28;20372;-45
2022/12/29 02:38:46;;;;;;;9.98;5.05;;;;;;;;;;4988990;28;20462;-46
2022/12/29 02:41:19;;;;;;;13.07;4.88;;;;;;;;;;4987383;28;20033;-44
2022/12/29 02:43:59;;;;;;;13.95;5.07;;;;;;;;;;4989583;28;20125;-45
2022/12/29 02:46:30;;;;;;;10.02;4.72;;;;;;;;;;4988600;28;20038;-45
2022/12/29 02:49:16;;;;;;;7.00;4.40;;;;;;;;;;4988328;28;20030;-44
2022/12/29 02:52:19;;;;;;;7.20;5.30;;;;;;;;;;4988539;28;20038;-45
2022/12/29 02:54:44;;;;;;;12.75;5.53;;;;;;;;;;4986761;28;20050;-45
2022/12/29 02:57:22;;;;;;;12.27;5.32;;;;;;;;;;4988988;28;20050;-48
2022/12/29 03:00:10;;;;;;;10.45;5.13;;;;;;;;;;4989689;28;20049;-45
2022/12/29 03:02:54;;;;;;;7.53;4.72;;;;;;;;;;4988827;28;20067;-50
2022/12/29 03:05:50;;;;;;;11.30;5.13;;;;;;;;;;4991112;28;20709;-45
2022/12/29 03:08:18;;;;;;;12.98;5.50;;;;;;;;;;4985883;28;20065;-44
2022/12/29 03:10:49;;;;;;;9.27;4.93;;;;;;;;;;4990022;28;20118;-46
2022/12/29 03:16:58;;;;;;;8.02;4.65;;;;;;;;;;4994001;28;20044;-44
2022/12/29 03:19:42;;;;;;;7.70;4.90;;;;;;;;;;4999037;28;20033;-45
2022/12/29 03:22:30;;;;;;;10.15;5.15;;;;;;;;;;4997322;28;20458;-45
2022/12/29 03:25:10;;;;;;;10.13;4.55;;;;;;;;;;4994515;28;20076;-48
2022/12/29 03:27:40;;;;;;;9.05;4.47;;;;;;;;;;4991027;28;20049;-46
2022/12/29 03:30:07;;;;;;;9.10;4.88;;;;;;;;;;4996003;28;20026;-44
2022/12/29 03:32:37;;;;;;;11.02;4.85;;;;;;;;;;4994869;28;20499;-45
2022/12/29 03:35:05;;;;;;;6.90;4.72;;;;;;;;;;4993183;28;20041;-50
2022/12/29 03:37:37;;;;;;;10.57;4.88;;;;;;;;;;4998623;28;20431;-46
2022/12/29 03:40:03;;;;;;;;;;;;;;;;;;4996979;28;20403;-44
2022/12/29 03:42:32;;;;;;;8.15;4.60;;;;;;;;;;4995649;28;20057;-44
2022/12/29 03:44:57;;;;;;;10.57;5.25;;;;;;;;;;4994114;28;20619;-44
2022/12/29 03:47:24;;;;;;;6.28;4.15;;;;;;;;;;4997966;28;20129;-46
2022/12/29 03:49:50;;;;;;;12.68;5.30;;;;;;;;;;4994660;28;20483;-44
2022/12/29 03:52:15;;;;;;;12.13;5.07;;;;;;;;;;4993290;28;20082;-45
2022/12/29 03:54:41;;;;;;;11.35;5.18;;;;;;;;;;4991880;28;20058;-44
2022/12/29 03:57:06;;;;;;;9.63;5.13;;;;;;;;;;4991206;28;20045;-45
2022/12/29 03:59:32;;;;;;;9.20;4.88;;;;;;;;;;4988579;28;20391;-45
2022/12/29 04:01:57;;;;;;;10.65;4.75;;;;;;;;;;4990147;28;20134;-47
2022/12/29 04:04:22;;;;;;;6.82;4.50;;;;;;;;;;4994219;28;20464;-45
2022/12/29 04:06:48;;;;;;;10.70;4.70;;;;;;;;;;4992780;28;20125;-47
2022/12/29 04:09:13;;;;;;;6.15;4.55;;;;;;;;;;4991678;28;20386;-45
2022/12/29 04:11:39;;;;;;;9.57;4.57;;;;;;;;;;4992300;28;20508;-46
2022/12/29 04:14:04;;;;;;;8.82;4.60;;;;;;;;;;4992734;28;20026;-44
2022/12/29 04:16:29;;;;;;;11.70;4.82;;;;;;;;;;4992271;28;20034;-46
2022/12/29 04:18:55;;;;;;;15.93;5.25;;;;;;;;;;4989322;28;20481;-49
2022/12/29 04:21:20;;;;;;;9.43;5.38;;;;;;;;;;4993647;28;20034;-45
2022/12/29 04:23:45;;;;;;;16.13;5.07;;;;;;;;;;4990990;28;20043;-44
2022/12/29 04:26:11;;;;;;;8.25;4.75;;;;;;;;;;4989364;28;20057;-46
2022/12/29 04:28:36;;;;;;;9.07;4.80;;;;;;;;;;4989584;28;20129;-45
2022/12/29 04:31:03;;;;;;;8.05;4.90;;;;;;;;;;4992439;28;20467;-44
2022/12/29 04:33:29;;;;;;;6.57;4.68;;;;;;;;;;4992072;28;20046;-44
2022/12/29 04:35:55;;;;;;;10.10;4.43;;;;;;;;;;4992408;28;20029;-45
2022/12/29 04:38:22;;;;;;;11.05;4.88;;;;;;;;;;4990425;28;20034;-44
2022/12/29 04:40:47;;;;;;;11.50;4.70;;;;;;;;;;4989392;28;20096;-45
2022/12/29 04:43:13;;;;;;;9.07;4.68;;;;;;;;;;4991103;28;20450;-44
2022/12/29 04:45:43;;;;;;;7.63;4.35;;;;;;;;;;4989833;28;20061;-44
2022/12/29 04:48:09;;;;;;;11.43;5.00;;;;;;;;;;4990653;28;20853;-46
2022/12/29 04:50:34;;;;;;;9.77;4.93;;;;;;;;;;4989575;28;20113;-44
2022/12/29 04:53:00;;;;;;;8.18;4.20;;;;;;;;;;4991560;28;20088;-46
2022/12/29 04:55:25;;;;;;;6.55;4.30;;;;;;;;;;4989093;28;20057;-44
2022/12/29 04:57:50;;;;;;;15.65;5.03;;;;;;;;;;4990171;28;20042;-44
2022/12/29 05:00:16;;;;;;;13.52;5.05;;;;;;;;;;4988434;28;20077;-45
2022/12/29 05:02:41;;;;;;;5.30;3.97;;;;;;;;;;4989979;28;20038;-44
2022/12/29 05:05:07;;;;;;;13.27;4.55;;;;;;;;;;4991214;28;20034;-44
2022/12/29 05:07:33;;;;;;;10.05;4.40;;;;;;;;;;4994520;28;20089;-44
2022/12/29 05:09:59;;;;;;;7.88;4.68;;;;;;;;;;4991946;28;20038;-46
2022/12/29 05:12:24;;;;;;;11.02;4.85;;;;;;;;;;4989259;28;20043;-44
2022/12/29 05:14:50;;;;;;;10.10;4.38;;;;;;;;;;4990450;28;20025;-47
2022/12/29 05:17:15;;;;;;;7.50;4.22;;;;;;;;;;4993793;28;20046;-44
2022/12/29 05:19:40;;;;;;;10.80;4.30;;;;;;;;;;4992760;28;20030;-45
2022/12/29 05:22:06;;;;;;;4.60;4.18;;;;;;;;;;4990922;28;20085;-44
2022/12/29 05:24:31;;;;;;;5.63;4.25;;;;;;;;;;4989399;28;20545;-44
2022/12/29 05:26:57;;;;;;;7.63;4.57;;;;;;;;;;4989372;28;20070;-45
2022/12/29 05:29:22;;;;;;;5.70;4.55;;;;;;;;;;4991205;28;20022;-44
2022/12/29 05:31:47;;;;;;;13.88;5.07;;;;;;;;;;4990398;28;20044;-45
2022/12/29 05:34:13;;;;;;;7.43;4.47;;;;;;;;;;4990425;28;20113;-44
2022/12/29 05:36:38;;;;;;;11.15;4.80;;;;;;;;;;4990836;28;20026;-44
2022/12/29 05:39:05;;;;;;;10.10;4.57;;;;;;;;;;4988627;28;20022;-44
2022/12/29 05:41:30;;;;;;;8.77;4.40;;;;;;;;;;4991042;28;20450;-45
2022/12/29 05:43:55;;;;;;;7.60;4.72;;;;;;;;;;4990661;28;20022;-47
2022/12/29 05:46:21;;;;;;;11.25;4.43;;;;;;;;;;4989570;28;20069;-44
2022/12/29 05:48:46;;;;;;;10.93;4.70;;;;;;;;;;4989152;28;20275;-44
2022/12/29 05:51:11;;;;;;;13.32;4.57;;;;;;;;;;4989440;28;20161;-44
2022/12/29 05:53:37;;;;;;;11.10;4.70;;;;;;;;;;4987983;28;20089;-45
2022/12/29 05:56:02;;;;;;;6.07;4.30;;;;;;;;;;4987076;28;20432;-44
2022/12/29 05:58:28;;;;;;;13.88;4.68;;;;;;;;;;4989886;28;20042;-44
2022/12/29 06:00:53;;;;;;;7.43;4.60;;;;;;;;;;4988085;28;20033;-42
2022/12/29 06:03:19;;;;;;;14.07;4.70;;;;;;;;;;4991814;28;20048;-45
2022/12/29 06:05:45;;;;;;;8.88;4.65;;;;;;;;;;4989076;28;20479;-45
2022/12/29 06:08:11;;;;;;;11.68;5.00;;;;;;;;;;4987906;28;20034;-44
2022/12/29 06:10:36;;;;;;;9.00;4.53;;;;;;;;;;4989194;28;20496;-44
2022/12/29 06:13:03;;;;;;;7.50;5.03;;;;;;;;;;4989040;28;20038;-45
2022/12/29 06:15:29;;;;;;;11.77;5.28;;;;;;;;;;4990698;28;20034;-44
2022/12/29 06:17:54;;;;;;;8.05;5.45;;;;;;;;;;4989140;28;20537;-44
2022/12/29 06:20:20;;;;;;;10.48;5.30;;;;;;;;;;4990971;28;20029;-44
2022/12/29 06:22:46;;;;;;;11.10;5.38;;;;;;;;;;4988629;28;20049;-44
2022/12/29 06:25:11;;;;;;;8.43;4.75;;;;;;;;;;4991795;28;20086;-45
2022/12/29 06:27:37;;;;;;;7.57;5.65;;;;;;;;;;4987985;28;20078;-44
2022/12/29 06:30:03;;;;;;;23.33;12.70;;;;;;;;;;4987771;28;20450;-45
2022/12/29 06:32:28;;;;;;;13.85;6.45;;;;;;;;;;4986861;28;20039;-47
2022/12/29 06:34:53;;;;;;;18.02;10.40;;;;;;;;;;4988847;28;20041;-43
2022/12/29 06:37:19;;;;;;;13.48;6.43;;;;;;;;;;4988447;28;20530;-45
2022/12/29 06:39:44;;;;;;;14.02;5.75;;;;;;;;;;4987950;28;20030;-44
2022/12/29 06:42:10;;;;;;;12.25;5.43;;;;;;;;;;4991643;28;20070;-44
2022/12/29 06:44:35;;;;;;;12.43;4.90;;;;;;;;;;4991472;28;20034;-45
2022/12/29 06:47:00;;;;;;;10.90;4.50;;;;;;;;;;4987968;28;20042;-46
2022/12/29 06:49:26;;;;;;;8.52;5.03;;;;;;;;;;4988714;28;20041;-45
2022/12/29 06:51:51;;;;;;;9.57;4.75;;;;;;;;;;4986853;28;20890;-45
2022/12/29 06:54:16;;;;;;;10.75;5.55;;;;;;;;;;4986499;28;20041;-44
2022/12/29 06:56:42;;;;;;;11.18;5.57;;;;;;;;;;4989030;28;20042;-45
2022/12/29 06:59:09;;;;;;;9.85;4.82;;;;;;;;;;4990231;28;20490;-44
2022/12/29 07:01:35;;;;;;;7.80;4.80;;;;;;;;;;4987800;28;20045;-45
2022/12/29 07:04:02;;;;;;;13.82;4.28;;;;;;;;;;4988355;28;20034;-44
2022/12/29 07:06:27;;;;;;;13.60;4.65;;;;;;;;;;4987998;28;20034;-44
2022/12/29 07:08:54;;;;;;;13.52;5.03;;;;;;;;;;4990364;28;20040;-44
2022/12/29 07:11:21;;;;;;;11.75;4.80;;;;;;;;;;4988081;28;20022;-46
2022/12/29 07:13:46;;;;;;;8.57;4.32;;;;;;;;;;4988276;28;20038;-44
2022/12/29 07:16:12;;;;;;;11.98;4.47;;;;;;;;;;4986522;28;20504;-45
2022/12/29 07:18:38;;;;;;;14.15;4.50;;;;;;;;;;4989540;28;20117;-46
2022/12/29 07:21:03;;;;;;;13.38;4.60;;;;;;;;;;4986826;28;20466;-45
2022/12/29 07:23:29;;;;;;;12.13;4.57;;;;;;;;;;4990997;28;20042;-45
2022/12/29 07:26:05;;;;;;;9.55;4.57;;;;;;;;;;4993815;28;20077;-43
2022/12/29 07:28:32;;;;;;;6.75;4.28;;;;;;;;;;4990246;28;20042;-46
2022/12/29 07:30:57;;;;;;;7.53;4.50;;;;;;;;;;4992903;28;20530;-44
2022/12/29 07:33:23;;;;;;;11.30;5.13;;;;;;;;;;4994672;28;20042;-44
2022/12/29 07:35:48;;;;;;;11.55;5.07;;;;;;;;;;4992146;28;20033;-44
2022/12/29 07:38:14;;;;;;;11.25;4.70;;;;;;;;;;4991608;28;20427;-46
2022/12/29 07:40:40;;;;;;;16.02;4.70;;;;;;;;;;4993472;28;20042;-44
2022/12/29 07:43:05;;;;;;;21.67;11.05;;;;;;;;;;4992736;28;20043;-45
2022/12/29 07:45:30;;;;;;;10.07;5.07;;;;;;;;;;4991681;28;20053;-46
2022/12/29 07:47:56;;;;;;;14.48;5.03;;;;;;;;;;4995709;28;20447;-47
2022/12/29 07:50:21;;;;;;;12.18;5.63;;;;;;;;;;4992238;28;20022;-45
2022/12/29 07:52:47;;;;;;;13.00;5.97;;;;;;;;;;4991976;28;20426;-44
2022/12/29 07:55:14;;;;;;;24.27;11.85;;;;;;;;;;4991557;28;20114;-45
2022/12/29 07:57:39;;;;;;;19.73;8.90;;;;;;;;;;4993835;28;20157;-45
2022/12/29 08:00:05;;;;;;;15.63;6.82;;;;;;;;;;4991211;28;20098;-45
2022/12/29 08:02:30;;;;;;;8.15;4.97;;;;;;;;;;4990677;28;20101;-44
2022/12/29 08:04:56;;;;;;;11.20;4.78;;;;;;;;;;4990405;28;20490;-44
2022/12/29 08:07:21;;;;;;;11.82;5.32;;;;;;;;;;4991573;28;20442;-44
2022/12/29 08:09:47;;;;;;;7.72;4.70;;;;;;;;;;4991983;28;20022;-53
2022/12/29 08:12:12;;;;;;;8.05;4.80;;;;;;;;;;4992156;28;20142;-44
2022/12/29 08:14:37;;;;;;;8.68;4.75;;;;;;;;;;4993729;28;20062;-49
2022/12/29 08:17:03;;;;;;;13.65;4.78;;;;;;;;;;4991776;28;20049;-50
2022/12/29 08:19:28;;;;;;;9.50;5.13;;;;;;;;;;4994208;28;20096;-50
2022/12/29 08:21:54;;;;;;;10.73;5.03;;;;;;;;;;4984812;28;20046;-50
2022/12/29 08:24:19;;;;;;;11.85;4.90;;;;;;;;;;4991142;28;20031;-48
2022/12/29 08:26:45;;;;;;;11.73;5.25;;;;;;;;;;4993398;28;20092;-49
2022/12/29 08:29:10;;;;;;;10.18;5.53;;;;;;;;;;4990961;28;20026;-52
2022/12/29 08:31:35;;;;;;;11.30;5.20;;;;;;;;;;4986937;28;20046;-47
2022/12/29 08:34:03;;;;;;;12.52;5.80;;;;;;;;;;4990826;28;20026;-47
2022/12/29 08:36:28;;;;;;;9.95;5.53;;;;;;;;;;4989704;28;20034;-49
2022/12/29 08:38:54;;;;;;;8.55;5.20;;;;;;;;;;4990666;28;20058;-50
2022/12/29 08:41:19;;;;;;;12.18;5.43;;;;;;;;;;4990847;28;20031;-46
2022/12/29 08:43:49;;;;;;;11.50;5.53;;;;;;;;;;4991473;28;20313;-45
2022/12/29 08:46:16;;;;;;;9.95;5.53;;;;;;;;;;4988432;28;20031;-46
2022/12/29 08:48:41;;;;;;;12.98;5.22;;;;;;;;;;4990385;28;20065;-44
2022/12/29 08:51:07;;;;;;;15.60;5.20;;;;;;;;;;4990905;28;20030;-47
2022/12/29 08:53:33;;;;;;;13.57;6.30;;;;;;;;;;4988902;28;20046;-45
2022/12/29 08:56:00;;;;;;;7.95;5.20;;;;;;;;;;4993424;28;20125;-46
2022/12/29 08:58:26;;;;;;;14.48;5.55;;;;;;;;;;4991332;28;20396;-48
2022/12/29 09:00:55;;;;;;;13.32;4.95;;;;;;;;;;4988287;28;20022;-44
2022/12/29 09:03:22;;;;;;;9.85;4.95;;;;;;;;;;4987716;28;20046;-45
2022/12/29 09:05:51;;;;;;;10.45;5.40;;;;;;;;;;4989511;28;20100;-48
2022/12/29 09:08:17;;;;;;;13.55;5.30;;;;;;;;;;4988884;28;20049;-51
2022/12/29 09:10:44;;;;;;;16.35;6.15;;;;;;;;;;4989280;28;20030;-51
2022/12/29 09:13:10;;;;;;;16.05;7.15;;;;;;;;;;4989428;28;20113;-50
2022/12/29 09:15:35;;;;;;;12.95;6.18;;;;;;;;;;4991268;28;20034;-49
2022/12/29 09:18:01;;;;;;;18.65;7.88;;;;;;;;;;4991235;28;20052;-48
2022/12/29 09:20:26;;;;;;;15.10;7.05;;;;;;;;;;4990704;28;20053;-47
2022/12/29 09:22:51;;;;;;;14.80;6.88;;;;;;;;;;4990844;28;20454;-51
2022/12/29 09:25:17;;;;;;;17.90;6.30;;;;;;;;;;4989358;28;20042;-47
2022/12/29 09:27:42;;;;;;;11.75;5.97;;;;;;;;;;4989150;28;20499;-48
2022/12/29 09:30:11;;;;;;;9.32;6.18;;;;;;;;;;4988878;28;20033;-46
2022/12/29 09:32:37;;;;;;;14.02;6.07;;;;;;;;;;4990628;28;20053;-49
2022/12/29 09:35:03;;;;;;;7.90;5.18;;;;;;;;;;4992038;28;20022;-49
2022/12/29 09:37:28;;;;;;;10.68;5.30;;;;;;;;;;4990799;28;20053;-51
2022/12/29 09:39:54;;;;;;;12.20;6.00;;;;;;;;;;4990953;28;20793;-49
2022/12/29 09:42:34;;;;;;;14.95;6.78;;;;;;;;;;4991116;28;20045;-45
2022/12/29 09:45:20;;;;;;;15.60;8.90;;;;;;;;;;4987356;28;20085;-51
2022/12/29 09:47:46;;;;;;;15.35;7.20;;;;;;;;;;4985664;28;20096;-48
2022/12/29 09:50:27;;;;;;;25.25;7.57;;;;;;;;;;4991064;28;20041;-50
2022/12/29 09:53:20;;;;;;;14.02;5.97;;;;;;;;;;4988805;28;20042;-51
2022/12/29 09:55:49;;;;;;;13.27;5.70;;;;;;;;;;4991403;28;20037;-52
2022/12/29 09:58:30;;;;;;;11.98;5.15;;;;;;;;;;4987463;28;20522;-49
2022/12/29 10:01:06;;;;;;;12.48;7.20;;;;;;;;;;4991749;28;20100;-49
2022/12/29 10:03:47;;;;;;;16.67;6.50;;;;;;;;;;4989094;28;20117;-51
2022/12/29 10:06:19;;;;;;;13.98;7.18;;;;;;;;;;4984655;28;20438;-49
2022/12/29 10:08:49;;;;;;;13.10;6.50;;;;;;;;;;4989040;28;20054;-48
2022/12/29 10:11:24;;;;;;;19.45;7.30;;;;;;;;;;4987091;28;20038;-49
2022/12/29 10:14:11;;;;;;;11.70;7.47;;;;;;;;;;4988866;28;20575;-52
2022/12/29 10:16:44;;;;;;;16.95;7.40;;;;;;;;;;4985750;28;20041;-52
2022/12/29 10:19:20;;;;;;;22.88;7.18;;;;;;;;;;4989573;28;20026;-46
2022/12/29 10:22:07;;;;;;;14.80;6.97;;;;;;;;;;4990019;28;20368;-50
2022/12/29 10:24:37;;;;;;;16.80;7.72;;;;;;;;;;4985105;28;20106;-47
2022/12/29 10:27:04;;;;;;;17.52;7.38;;;;;;;;;;4990762;28;20050;-48
2022/12/29 10:29:40;;;;;;;12.82;7.55;;;;;;;;;;4989293;28;20065;-49
2022/12/29 10:32:13;;;;;;;12.45;7.35;;;;;;;;;;4988297;28;20041;-44
2022/12/29 10:34:47;;;;;;;12.85;6.65;;;;;;;;;;4987447;28;20746;-44
2022/12/29 10:37:42;;;;;;;16.65;6.47;;;;;;;;;;4985595;28;20046;-48
2022/12/29 10:40:29;;;;;;;14.60;6.95;;;;;;;;;;4985375;28;20023;-48
2022/12/29 10:42:57;;;;;;;15.63;7.25;;;;;;;;;;4986113;28;20092;-46
2022/12/29 10:45:27;;;;;;;19.77;7.63;;;;;;;;;;4986984;28;20129;-44
2022/12/29 10:48:05;;;;;;;11.60;7.25;;;;;;;;;;4992880;28;20045;-43
2022/12/29 10:50:30;;;;;;;17.27;7.40;;;;;;;;;;4985313;28;20434;-45
2022/12/29 10:53:00;;;;;;;17.65;7.18;;;;;;;;;;4991070;28;20084;-46
2022/12/29 10:55:32;;;;;;;20.50;7.32;;;;;;;;;;4986792;28;20446;-48
2022/12/29 10:58:04;;;;;;;23.23;7.63;;;;;;;;;;4991700;28;20053;-43
2022/12/29 11:00:31;;;;;;;14.77;7.10;;;;;;;;;;4992111;28;20084;-46
2022/12/29 11:03:17;;;;;;;14.27;7.70;;;;;;;;;;4992013;28;20141;-42
2022/12/29 11:06:02;;;;;;;19.67;8.05;;;;;;;;;;4991972;28;20045;-42
2022/12/29 11:08:33;;;;;;;17.33;7.00;;;;;;;;;;4992161;28;20057;-46
2022/12/29 11:11:05;;;;;;;13.40;6.73;;;;;;;;;;4988176;28;20401;-46
2022/12/29 11:13:33;;;;;;;15.05;6.55;;;;;;;;;;4992136;28;20460;-49
2022/12/29 11:16:00;;;;;;;21.17;7.88;;;;;;;;;;4989981;28;20027;-46
2022/12/29 11:18:33;;;;;;;15.50;6.57;;;;;;;;;;4992232;28;20492;-47
2022/12/29 11:21:01;;;;;;;12.02;6.32;;;;;;;;;;4995507;28;20031;-43
2022/12/29 11:23:38;;;;;;;16.85;6.82;;;;;;;;;;4991184;28;20603;-51
2022/12/29 11:26:26;;;;;;;15.85;7.38;;;;;;;;;;4994100;28;20036;-46
2022/12/29 11:29:13;;;;;;;19.17;6.57;;;;;;;;;;4992557;28;20089;-50
2022/12/29 11:31:46;;;;;;;13.25;6.25;;;;;;;;;;4989279;28;20027;-42
2022/12/29 11:34:23;;;;;;;13.15;6.60;;;;;;;;;;4993177;28;20523;-44
2022/12/29 11:36:51;;;;;;;16.67;6.53;;;;;;;;;;4993894;28;20089;-42
2022/12/29 11:39:49;;;;;;;14.43;6.20;;;;;;;;;;4990695;28;20057;-43
2022/12/29 11:42:17;;;;;;;10.60;6.30;;;;;;;;;;4991050;28;20165;-44
2022/12/29 11:44:48;;;;;;;23.17;7.25;;;;;;;;;;4987191;28;20034;-46
2022/12/29 11:47:30;;;;;;;21.27;7.18;;;;;;;;;;4990242;28;20034;-43
2022/12/29 11:50:03;;;;;;;15.88;7.43;;;;;;;;;;4990636;28;20026;-42
2022/12/29 11:52:34;;;;;;;18.80;6.90;;;;;;;;;;4991208;28;20169;-45
2022/12/29 11:55:03;;;;;;;13.82;7.00;;;;;;;;;;4995207;28;20116;-45
2022/12/29 11:57:29;;;;;;;17.15;7.03;;;;;;;;;;4986716;28;20054;-42
2022/12/29 11:59:55;;;;;;;8.75;6.30;;;;;;;;;;4993558;28;20031;-43
2022/12/29 12:02:32;;;;;;;17.60;6.88;;;;;;;;;;4985884;28;20124;-44
2022/12/29 12:05:38;;;;;;;13.77;6.57;;;;;;;;;;4991294;28;20034;-44
2022/12/29 12:08:11;;;;;;;12.95;6.30;;;;;;;;;;4980696;28;20078;-45
2022/12/29 12:10:46;;;;;;;18.08;6.80;;;;;;;;;;4984348;28;20958;-42
2022/12/29 12:13:21;;;;;;;20.63;7.25;;;;;;;;;;4996745;28;20058;-44
2022/12/29 12:16:02;;;;;;;9.90;6.38;;;;;;;;;;4990389;28;20705;-51
2022/12/29 12:18:33;;;;;;;16.65;6.78;;;;;;;;;;4988658;28;20081;-50
2022/12/29 12:21:30;;;;;;;15.82;6.53;;;;;;;;;;4989414;28;20034;-48
2022/12/29 12:24:08;;;;;;;15.18;6.10;;;;;;;;;;4989175;28;20077;-45
2022/12/29 12:26:49;;;;;;;21.98;6.82;;;;;;;;;;4991409;28;20045;-52
2022/12/29 12:29:22;;;;;;;11.10;5.93;;;;;;;;;;4990094;28;20410;-52
2022/12/29 12:31:55;;;;;;;18.35;7.85;;;;;;;;;;4991700;28;20160;-49
2022/12/29 12:34:27;;;;;;;16.85;7.30;;;;;;;;;;4991985;28;20379;-44
2022/12/29 12:37:05;;;;;;;17.77;6.95;;;;;;;;;;4991820;28;20114;-49
2022/12/29 12:40:06;;;;;;;11.23;7.57;;;;;;;;;;4988185;28;20069;-50
2022/12/29 12:43:16;;;;;;;13.47;5.87;;;;;;;;;;4990044;28;20410;-51
2022/12/29 12:46:32;;;;;;;11.05;6.05;;;;;;;;;;4948458;28;20497;-44
2022/12/29 12:49:24;;;;;;;11.63;6.22;;;;;;;;;;4945376;28;20110;-47
2022/12/29 12:52:08;;;;;;;11.93;6.32;;;;;;;;;;4943628;28;20035;-48
2022/12/29 12:54:51;;;;;;;17.83;5.75;;;;;;;;;;4946886;28;20158;-43
2022/12/29 12:57:16;;;;;;;;;;;;;;;;;;4948481;28;20103;-45
2022/12/29 12:59:59;;;;;;;9.02;4.80;;;;;;;;;;4948124;28;19914;-47
2022/12/29 13:02:42;;;;;;;18.48;5.13;;;;;;;;;;4944223;28;20066;-48
2022/12/29 13:05:29;;;;;;;8.13;4.72;;;;;;;;;;4945441;28;20039;-44
2022/12/29 13:08:12;;;;;;;13.02;5.82;;;;;;;;;;4945666;28;20520;-43
2022/12/29 13:10:42;;;;;;;14.57;5.72;;;;;;;;;;4948386;28;20483;-43
2022/12/29 13:13:33;;;;;;;17.10;5.15;;;;;;;;;;4947307;28;20043;-49
2022/12/29 13:16:17;;;;;;;11.40;5.03;;;;;;;;;;4946774;28;20046;-44
2022/12/29 13:18:42;;;;;;;13.25;5.55;;;;;;;;;;4945618;28;20456;-43
2022/12/29 13:21:26;;;;;;;19.27;6.28;;;;;;;;;;4947597;28;20043;-44
2022/12/29 13:24:07;;;;;;;10.25;4.95;;;;;;;;;;4991117;28;20042;-52
2022/12/29 13:26:55;;;;;;;10.73;5.25;;;;;;;;;;4989685;28;20034;-46
2022/12/29 13:29:33;;;;;;;12.15;6.20;;;;;;;;;;4989152;28;20034;-45
2022/12/29 13:32:27;;;;;;;14.57;5.78;;;;;;;;;;4991006;28;20049;-47
2022/12/29 13:35:10;;;;;;;18.08;5.88;;;;;;;;;;4989445;28;20085;-44
2022/12/29 13:37:49;;;;;;;11.45;5.82;;;;;;;;;;4987484;28;20038;-46
2022/12/29 13:40:18;;;;;;;9.02;5.53;;;;;;;;;;4987897;28;20203;-47
2022/12/29 13:42:46;;;;;;;9.85;5.43;;;;;;;;;;4989573;28;21107;-43
2022/12/29 13:45:22;;;;;;;19.42;6.05;;;;;;;;;;4989444;28;20467;-48
2022/12/29 13:48:22;;;;;;;15.82;6.63;;;;;;;;;;4986715;28;20472;-46
2022/12/29 13:50:57;;;;;;;13.48;5.97;;;;;;;;;;4971730;28;20126;-42
2022/12/29 13:53:40;;;;;;;13.07;7.35;;;;;;;;;;4976729;28;20066;-45
2022/12/29 13:56:20;;;;;;;18.63;6.53;;;;;;;;;;4977170;28;20093;-47
2022/12/29 13:59:03;;;;;;;19.02;7.50;;;;;;;;;;4976327;28;20132;-49
2022/12/29 14:01:43;;;;;;;22.35;8.82;;;;;;;;;;4974779;28;20199;-38
2022/12/29 14:04:22;;;;;;;9.50;6.50;;;;;;;;;;4974567;28;20166;-45
2022/12/29 14:07:00;;;;;;;13.20;6.22;;;;;;;;;;4973454;28;20053;-49
2022/12/29 14:09:31;;;;;;;12.10;5.78;;;;;;;;;;4976529;28;20484;-49
2022/12/29 14:11:57;;;;;;;11.55;5.72;;;;;;;;;;4976533;28;20084;-46
2022/12/29 14:14:27;;;;;;;9.80;5.75;;;;;;;;;;4975149;28;20043;-44
2022/12/29 14:16:53;;;;;;;9.68;5.47;;;;;;;;;;4979092;28;20092;-45
2022/12/29 14:19:29;;;;;;;13.50;5.38;;;;;;;;;;4979536;28;20042;-44
2022/12/29 14:22:01;;;;;;;15.10;6.55;;;;;;;;;;4971889;28;20042;-44
2022/12/29 14:24:36;;;;;;;12.85;5.50;;;;;;;;;;4977606;28;20038;-49
2022/12/29 14:27:21;;;;;;;23.58;5.82;;;;;;;;;;4982863;28;20077;-51
2022/12/29 14:29:51;;;;;;;11.95;6.28;;;;;;;;;;4946960;28;20071;-48
2022/12/29 14:32:26;;;;;;;17.20;6.55;;;;;;;;;;4945078;28;20054;-50
2022/12/29 14:35:43;;;;;;;17.33;7.15;;;;;;;;;;4945844;28;20045;-47
2022/12/29 14:38:17;;;;;;;12.48;5.70;;;;;;;;;;4941733;28;20039;-44
2022/12/29 14:40:43;;;;;;;15.43;5.80;;;;;;;;;;4944754;28;20130;-44
2022/12/29 14:43:22;;;;;;;15.25;7.68;;;;;;;;;;4940220;28;20150;-44
2022/12/29 14:45:57;;;;;;;21.80;9.00;;;;;;;;;;4961576;28;20042;-46
2022/12/29 14:48:44;;;;;;;79.30;41.88;;;;;;;;;;4962488;28;20038;-48
2022/12/29 14:51:39;;;;;;;8.82;6.65;;;;;;;;;;4964718;28;20199;-43
2022/12/29 14:54:33;;;;;;;14.32;5.38;;;;;;;;;;4955349;28;20109;-45
2022/12/29 14:57:01;;;;;;;18.70;5.30;;;;;;;;;;4924455;29;20052;-46
2022/12/29 14:59:28;;;;;;;13.80;5.25;;;;;;;;;;4924342;29;20118;-45
2022/12/29 15:01:56;;;;;;;12.57;5.63;;;;;;;;;;4926751;29;20055;-47
2022/12/29 15:04:25;;;;;;;11.00;5.53;;;;;;;;;;4928150;29;20477;-44
2022/12/29 15:06:50;;;;;;;15.85;6.80;;;;;;;;;;4934316;28;20154;-44
2022/12/29 15:09:33;;;;;;;18.38;7.28;;;;;;;;;;4951673;28;20110;-44
2022/12/29 15:12:35;;;;;;;15.52;6.70;;;;;;;;;;4943685;28;20031;-43
2022/12/29 15:15:02;;;;;;;21.77;7.20;;;;;;;;;;4948178;28;20601;-44
2022/12/29 15:17:33;;;;;;;14.98;6.35;;;;;;;;;;4947741;28;20465;-43
2022/12/29 15:20:15;;;;;;;15.10;6.10;;;;;;;;;;4948647;28;20583;-43
2022/12/29 15:22:45;;;;;;;11.68;8.38;;;;;;;;;;4944845;28;20043;-44
2022/12/29 15:25:16;;;;;;;18.58;9.18;;;;;;;;;;4948719;28;20031;-43
2022/12/29 15:27:48;;;;;;;18.20;8.55;;;;;;;;;;4947451;28;20035;-46
2022/12/29 15:30:13;;;;;;;10.32;6.25;;;;;;;;;;4948450;28;20031;-50
2022/12/29 15:32:42;;;;;;;10.18;6.97;;;;;;;;;;4947467;28;20137;-48
2022/12/29 15:35:37;;;;;;;16.15;7.47;;;;;;;;;;4988357;28;20443;-44